createdAt,value
2022-08-04T00:02:15.902Z,22.60
2022-08-04T00:04:51.907Z,22.60
2022-08-04T00:07:54.870Z,22.50
2022-08-04T00:10:23.178Z,22.50
2022-08-04T00:12:54.949Z,22.50
2022-08-04T00:15:23.267Z,22.60
2022-08-04T00:18:09.512Z,22.50
2022-08-04T00:20:39.420Z,22.50
2022-08-04T00:23:06.883Z,22.50
2022-08-04T00:25:33.907Z,22.40
2022-08-04T00:28:05.131Z,22.40
2022-08-04T00:30:32.504Z,22.30
2022-08-04T00:33:00.333Z,22.20
2022-08-04T00:35:29.266Z,22.30
2022-08-04T00:37:57.168Z,22.30
2022-08-04T00:40:42.015Z,22.30
2022-08-04T00:43:13.380Z,22.30
2022-08-04T00:46:16.118Z,22.30
2022-08-04T00:49:05.480Z,22.40
2022-08-04T00:52:32.425Z,22.30
2022-08-04T00:55:13.044Z,22.30
2022-08-04T00:58:19.037Z,22.30
2022-08-04T01:01:00.701Z,22.30
2022-08-04T01:03:42.921Z,22.20
2022-08-04T01:06:18.522Z,22.20
2022-08-04T01:09:11.461Z,22.20
2022-08-04T01:11:58.050Z,22.20
2022-08-04T01:14:44.828Z,22.20
2022-08-04T01:17:35.801Z,22.20
2022-08-04T01:20:09.641Z,22.20
2022-08-04T01:22:51.572Z,22.10
2022-08-04T01:25:39.202Z,22.20
2022-08-04T01:28:26.869Z,22.10
2022-08-04T01:30:58.335Z,22.00
2022-08-04T01:33:29.528Z,22.00
2022-08-04T01:36:02.607Z,22.00
2022-08-04T01:38:34.105Z,22.00
2022-08-04T01:41:05.633Z,22.00
2022-08-04T01:43:35.281Z,22.00
2022-08-04T01:46:04.576Z,21.90
2022-08-04T01:48:32.985Z,21.90
2022-08-04T01:51:06.154Z,22.00
2022-08-04T01:53:42.178Z,22.10
2022-08-04T01:56:11.602Z,22.00
2022-08-04T01:58:40.577Z,22.10
2022-08-04T02:01:13.030Z,22.10
2022-08-04T02:04:20.972Z,22.00
2022-08-04T02:07:03.627Z,22.10
2022-08-04T02:09:59.060Z,22.00
2022-08-04T02:12:28.193Z,22.00
2022-08-04T02:15:17.060Z,22.00
2022-08-04T02:17:43.892Z,22.00
2022-08-04T02:20:23.193Z,21.90
2022-08-04T02:23:02.919Z,22.00
2022-08-04T02:25:34.382Z,21.90
2022-08-04T02:28:29.710Z,21.90
2022-08-04T02:31:04.777Z,22.00
2022-08-04T02:33:40.836Z,21.80
2022-08-04T02:36:13.825Z,21.80
2022-08-04T02:38:59.301Z,21.80
2022-08-04T02:41:27.765Z,21.90
2022-08-04T02:44:02.633Z,21.80
2022-08-04T02:46:31.099Z,21.90
2022-08-04T02:48:58.348Z,22.00
2022-08-04T02:51:30.951Z,21.90
2022-08-04T02:54:00.025Z,21.90
2022-08-04T02:56:30.169Z,21.90
2022-08-04T02:59:01.346Z,21.90
2022-08-04T03:01:28.883Z,21.90
2022-08-04T03:04:24.326Z,22.00
2022-08-04T03:07:18.496Z,21.90
2022-08-04T03:10:18.773Z,21.90
2022-08-04T03:13:23.796Z,22.00
2022-08-04T03:16:25.304Z,22.00
2022-08-04T03:19:22.159Z,22.00
2022-08-04T03:22:33.932Z,21.90
2022-08-04T03:25:28.417Z,22.00
2022-08-04T03:28:03.899Z,22.00
2022-08-04T03:30:52.284Z,22.10
2022-08-04T03:33:45.963Z,22.10
2022-08-04T03:36:49.796Z,22.10
2022-08-04T03:39:41.856Z,22.10
2022-08-04T03:42:39.273Z,22.10
2022-08-04T03:45:23.614Z,22.10
2022-08-04T03:48:13.907Z,22.30
2022-08-04T03:51:34.960Z,22.20
2022-08-04T03:54:12.472Z,22.20
2022-08-04T03:57:05.578Z,22.30
2022-08-04T03:59:48.662Z,22.40
2022-08-04T04:02:31.214Z,22.60
2022-08-04T04:05:36.661Z,22.70
2022-08-04T04:08:33.491Z,22.60
2022-08-04T04:11:19.290Z,22.80
2022-08-04T04:14:07.305Z,22.80
2022-08-04T04:16:46.232Z,22.90
2022-08-04T04:19:28.198Z,22.90
2022-08-04T04:22:19.895Z,22.90
2022-08-04T04:24:49.902Z,23.10
2022-08-04T04:27:23.802Z,23.20
2022-08-04T04:29:59.956Z,23.20
2022-08-04T04:32:35.772Z,23.20
2022-08-04T04:35:18.306Z,23.30
2022-08-04T04:38:15.577Z,23.50
2022-08-04T04:41:09.395Z,23.60
2022-08-04T04:43:50.968Z,23.80
2022-08-04T04:46:50.788Z,23.80
2022-08-04T04:49:23.677Z,23.90
2022-08-04T04:52:05.292Z,23.80
2022-08-04T04:54:51.380Z,23.90
2022-08-04T04:57:21.755Z,24.00
2022-08-04T05:00:13.983Z,24.20
2022-08-04T05:03:09.460Z,24.20
2022-08-04T05:06:15.262Z,24.30
2022-08-04T05:09:18.293Z,24.40
2022-08-04T05:12:02.516Z,24.50
2022-08-04T05:14:41.779Z,24.90
2022-08-04T05:17:23.958Z,24.90
2022-08-04T05:20:12.258Z,25.10
2022-08-04T05:22:49.029Z,25.20
2022-08-04T05:25:35.006Z,25.60
2022-08-04T05:28:13.829Z,25.80
2022-08-04T05:30:48.847Z,26.20
2022-08-04T05:33:29.221Z,26.40
2022-08-04T05:36:23.516Z,26.70
2022-08-04T05:38:51.737Z,26.90
2022-08-04T05:41:19.591Z,27.10
2022-08-04T05:43:48.174Z,27.40
2022-08-04T05:46:16.582Z,27.80
2022-08-04T05:48:45.494Z,28.50
2022-08-04T05:51:14.200Z,29.50
2022-08-04T05:53:44.394Z,31.00
2022-08-04T05:56:14.047Z,32.40
2022-08-04T05:58:41.671Z,33.60
2022-08-04T06:01:10.811Z,34.30
2022-08-04T06:03:39.553Z,34.70
2022-08-04T06:06:08.333Z,35.10
2022-08-04T06:08:35.588Z,35.20
2022-08-04T06:11:07.027Z,34.90
2022-08-04T06:13:49.572Z,35.00
2022-08-04T06:16:30.092Z,35.50
2022-08-04T06:20:03.891Z,36.20
2022-08-04T06:21:52.488Z,36.40
2022-08-04T06:24:20.495Z,36.90
2022-08-04T06:26:49.989Z,37.10
2022-08-04T06:29:35.317Z,37.10
2022-08-04T06:32:30.346Z,36.50
2022-08-04T06:35:02.633Z,35.80
2022-08-04T06:37:42.208Z,35.20
2022-08-04T06:40:30.077Z,34.60
2022-08-04T06:43:08.941Z,34.90
2022-08-04T06:45:40.013Z,34.80
2022-08-04T06:48:08.210Z,34.40
2022-08-04T06:51:25.816Z,34.20
2022-08-04T06:53:27.309Z,34.10
2022-08-04T06:55:55.032Z,33.80
2022-08-04T06:58:23.203Z,33.70
2022-08-04T07:00:51.642Z,34.00
2022-08-04T07:03:19.937Z,34.40
2022-08-04T07:05:48.336Z,34.40
2022-08-04T07:08:16.490Z,34.10
2022-08-04T07:10:44.854Z,34.10
2022-08-04T07:13:12.653Z,34.30
2022-08-04T07:15:46.568Z,34.40
2022-08-04T07:18:13.806Z,34.10
2022-08-04T07:20:45.565Z,34.00
2022-08-04T07:23:21.435Z,34.50
2022-08-04T07:25:59.975Z,35.80
2022-08-04T07:28:40.150Z,37.30
2022-08-04T07:31:31.780Z,38.40
2022-08-04T07:34:16.575Z,39.00
2022-08-04T07:36:52.926Z,39.20
2022-08-04T07:39:28.537Z,38.80
2022-08-04T07:41:58.847Z,38.20
2022-08-04T07:44:25.908Z,37.50
2022-08-04T07:46:53.645Z,36.50
2022-08-04T07:49:55.553Z,35.40
2022-08-04T07:52:08.930Z,34.60
2022-08-04T07:54:36.359Z,34.00
2022-08-04T07:57:03.865Z,33.50
2022-08-04T07:59:30.993Z,33.10
2022-08-04T08:02:00.908Z,32.70
2022-08-04T08:04:28.657Z,32.10
2022-08-04T08:06:57.027Z,31.90
2022-08-04T08:09:24.198Z,31.70
2022-08-04T08:12:36.219Z,31.50
2022-08-04T08:14:41.390Z,31.60
2022-08-04T08:17:08.567Z,31.80
2022-08-04T08:19:36.252Z,32.20
2022-08-04T08:22:03.934Z,33.20
2022-08-04T08:24:35.329Z,34.50
2022-08-04T08:27:04.595Z,35.90
2022-08-04T08:29:35.021Z,36.90
2022-08-04T08:32:08.875Z,37.50
2022-08-04T08:34:37.811Z,37.90
2022-08-04T08:37:33.476Z,38.20
2022-08-04T08:40:40.857Z,38.00
2022-08-04T08:44:06.272Z,37.00
2022-08-04T08:46:49.868Z,35.20
2022-08-04T08:50:01.706Z,33.70
2022-08-04T08:52:57.301Z,32.80
2022-08-04T08:55:32.904Z,31.90
2022-08-04T08:58:38.509Z,31.20
2022-08-04T09:01:14.406Z,30.80
2022-08-04T09:04:23.187Z,30.40
2022-08-04T09:07:10.464Z,30.10
2022-08-04T09:09:57.544Z,29.80
2022-08-04T09:12:54.180Z,29.70
2022-08-04T09:15:50.039Z,29.60
2022-08-04T09:18:25.453Z,29.70
2022-08-04T09:21:00.680Z,29.80
2022-08-04T09:24:00.998Z,30.00
2022-08-04T09:26:34.582Z,30.40
2022-08-04T09:29:31.524Z,30.50
2022-08-04T09:32:33.513Z,30.50
2022-08-04T09:35:15.688Z,30.50
2022-08-04T09:37:58.376Z,30.90
